Time;durP1;ratioP1;P1;durP2;ratioP2;P2;SDS_P1;SDS_P2;PMS_P1;PMS_P2;Temp;Humidity;BMP_temperature;BMP_pressure;BME280_temperature;BME280_humidity;BME280_pressure;Samples;Min_cycle;Max_cycle;Signal;HPM_P1;HPM_P2
2023/07/10 00:03:33;;;;;;;5.67;4.10;;;15.10;99.90;;;;;;1951747;72;27406;-88
2023/07/10 00:06:22;;;;;;;6.37;3.93;;;14.90;99.90;;;;;;1936758;72;25279;-88
2023/07/10 00:09:13;;;;;;;6.23;3.97;;;14.70;99.90;;;;;;1929677;72;25194;-87
2023/07/10 00:12:02;;;;;;;4.63;3.93;;;14.80;99.90;;;;;;1921207;72;25239;-88
2023/07/10 00:14:50;;;;;;;4.70;4.20;;;14.70;99.90;;;;;;1864786;75;25197;-88
2023/07/10 00:17:39;;;;;;;12.33;4.60;;;14.60;99.90;;;;;;1891770;75;25164;-88
2023/07/10 00:20:29;;;;;;;6.80;4.10;;;14.60;99.90;;;;;;1859781;75;25284;-89
2023/07/10 00:23:18;;;;;;;4.20;3.80;;;14.50;99.90;;;;;;1866785;75;25817;-89
2023/07/10 00:26:13;;;;;;;8.10;4.40;;;14.60;99.90;;;;;;1867466;76;25715;-89
2023/07/10 00:29:05;;;;;;;5.90;3.80;;;14.60;99.90;;;;;;1864431;76;25251;-89
2023/07/10 00:31:54;;;;;;;7.83;4.73;;;14.50;99.90;;;;;;1868961;76;25313;-89
2023/07/10 00:34:42;;;;;;;5.17;4.03;;;14.40;99.90;;;;;;1880534;75;25744;-89
2023/07/10 00:37:31;;;;;;;5.80;4.27;;;14.40;99.90;;;;;;1881386;75;25734;-89
2023/07/10 00:43:04;;;;;;;7.23;4.37;;;14.30;99.90;;;;;;1958436;71;27705;-89
2023/07/10 00:45:54;;;;;;;5.87;4.63;;;14.30;99.90;;;;;;1912403;73;25243;-88
2023/07/10 00:48:46;;;;;;;11.43;4.80;;;14.30;99.90;;;;;;1890557;75;25776;-89
2023/07/10 00:51:38;;;;;;;7.97;4.97;;;14.10;99.90;;;;;;1894362;75;25730;-88
2023/07/10 00:54:31;;;;;;;8.93;5.20;;;14.20;99.90;;;;;;1901368;75;25245;-88
2023/07/10 00:57:23;;;;;;;5.20;4.70;;;14.20;99.90;;;;;;1910330;75;25654;-88
2023/07/10 01:00:18;;;;;;;8.03;5.00;;;14.20;99.90;;;;;;1907780;75;25769;-88
2023/07/10 01:03:10;;;;;;;8.33;4.93;;;14.20;99.90;;;;;;1905528;75;25322;-89
2023/07/10 01:06:01;;;;;;;6.30;4.70;;;14.20;99.90;;;;;;1899195;75;25238;-88
2023/07/10 01:08:53;;;;;;;6.40;5.03;;;14.00;99.90;;;;;;1908893;75;25202;-88
2023/07/10 01:11:43;;;;;;;6.57;4.83;;;13.90;99.90;;;;;;1913160;75;25922;-88
2023/07/10 01:14:34;;;;;;;6.27;4.83;;;14.00;99.90;;;;;;1899215;75;25287;-88
2023/07/10 01:17:24;;;;;;;8.10;5.40;;;13.90;99.90;;;;;;1902617;74;25702;-88
2023/07/10 01:20:35;;;;;;;6.07;5.00;;;13.90;99.90;;;;;;1897418;75;25278;-88
2023/07/10 01:23:23;;;;;;;11.03;5.60;;;13.90;99.90;;;;;;1884923;75;25248;-88
2023/07/10 01:26:12;;;;;;;5.80;4.93;;;13.90;99.90;;;;;;1914223;75;25771;-88
2023/07/10 01:29:03;;;;;;;8.47;5.30;;;13.90;99.90;;;;;;1901633;75;26220;-88
2023/07/10 01:31:54;;;;;;;8.93;5.17;;;13.90;99.90;;;;;;1909112;75;25757;-88
2023/07/10 01:37:28;;;;;;;6.20;5.60;;;13.90;99.90;;;;;;1953202;72;27417;-88
2023/07/10 01:40:20;;;;;;;9.20;6.10;;;14.20;99.90;;;;;;1924098;73;25719;-88
2023/07/10 01:48:44;;;;;;;13.30;7.80;;;14.60;99.90;;;;;;1949930;71;27021;-88
2023/07/10 01:51:32;;;;;;;10.10;6.90;;;14.70;99.90;;;;;;1942820;72;25293;-88
2023/07/10 01:54:21;;;;;;;14.10;7.93;;;14.80;99.90;;;;;;1934761;73;25153;-88
2023/07/10 01:57:11;;;;;;;11.57;8.07;;;14.90;99.90;;;;;;1937537;72;25283;-88
2023/07/10 02:00:00;;;;;;;10.40;7.80;;;14.90;99.90;;;;;;1926578;73;25234;-88
2023/07/10 02:02:48;;;;;;;12.07;8.43;;;15.00;99.90;;;;;;1926388;73;25226;-88
2023/07/10 02:05:37;;;;;;;13.73;8.23;;;15.00;99.90;;;;;;1940358;72;25224;-88
2023/07/10 02:08:26;;;;;;;12.57;7.80;;;15.00;99.90;;;;;;1934104;72;25271;-88
2023/07/10 02:14:05;;;;;;;8.60;6.90;;;15.00;99.90;;;;;;1946356;72;26902;-88
2023/07/10 02:20:16;;;;;;;12.67;6.90;;;14.80;99.90;;;;;;1979146;71;26245;-88
2023/07/10 02:23:04;;;;;;;10.17;6.50;;;14.70;99.90;;;;;;1964986;72;25188;-88
2023/07/10 02:25:53;;;;;;;8.97;6.33;;;14.80;99.90;;;;;;2040905;69;25207;-88
2023/07/10 02:28:42;;;;;;;11.57;7.50;;;14.70;99.90;;;;;;2026549;69;25209;-88
2023/07/10 02:34:24;;;;;;;11.57;6.50;;;14.60;99.90;;;;;;1947462;72;26979;-89
2023/07/10 02:40:27;;;;;;;13.13;7.57;;;14.50;99.90;;;;;;1975126;71;26988;-89
2023/07/10 02:46:11;;;;;;;11.97;6.87;;;14.50;99.90;;;;;;1951267;72;26907;-89
2023/07/10 02:49:00;;;;;;;9.27;7.10;;;14.50;99.90;;;;;;1920639;73;25799;-88
2023/07/10 02:51:48;;;;;;;12.43;6.70;;;14.60;99.90;;;;;;1927165;72;25219;-88
2023/07/10 02:54:36;;;;;;;8.60;6.70;;;14.60;99.90;;;;;;1941906;73;25323;-89
2023/07/10 02:57:25;;;;;;;9.47;6.67;;;14.60;99.90;;;;;;1940490;73;25266;-89
2023/07/10 03:00:15;;;;;;;9.67;6.30;;;14.70;99.90;;;;;;1943378;73;25218;-88
2023/07/10 03:03:03;;;;;;;8.70;5.87;;;14.70;99.90;;;;;;1927816;73;25720;-88
2023/07/10 03:05:56;;;;;;;8.23;5.80;;;14.80;99.90;;;;;;1930508;73;25304;-89
2023/07/10 03:08:44;;;;;;;7.93;6.27;;;14.70;99.90;;;;;;1909000;73;25628;-89
2023/07/10 03:11:33;;;;;;;9.13;6.67;;;14.80;99.90;;;;;;1930009;73;25757;-89
2023/07/10 03:14:21;;;;;;;9.73;6.53;;;14.90;99.90;;;;;;1937497;72;25587;-89
2023/07/10 03:17:10;;;;;;;7.10;5.83;;;14.90;99.90;;;;;;1921120;73;25230;-89
2023/07/10 03:19:59;;;;;;;8.63;5.53;;;14.90;99.90;;;;;;1924095;73;25273;-89
2023/07/10 03:38:57;;;;;;;5.60;4.00;;;17.50;99.90;;;;;;1933138;72;27012;-89
2023/07/10 03:41:46;;;;;;;5.57;4.20;;;17.70;99.90;;;;;;1891897;73;25311;-89
2023/07/10 03:44:35;;;;;;;5.43;4.10;;;17.80;99.90;;;;;;1897889;75;25157;-89
2023/07/10 03:47:24;;;;;;;5.70;4.30;;;18.20;99.90;;;;;;1891981;75;25186;-89
2023/07/10 03:50:13;;;;;;;10.23;4.20;;;18.40;99.90;;;;;;1897549;75;25618;-89
2023/07/10 03:53:03;;;;;;;5.73;4.20;;;18.70;99.90;;;;;;1901759;75;25330;-89
2023/07/10 03:55:53;;;;;;;5.90;4.33;;;19.10;99.90;;;;;;1894457;75;25241;-89
2023/07/10 04:03:01;;;;;;;5.13;3.97;;;19.60;99.90;;;;;;1973164;71;27515;-89
2023/07/10 04:05:52;;;;;;;8.70;4.50;;;20.30;99.90;;;;;;2009684;70;25196;-89
2023/07/10 04:08:41;;;;;;;5.27;4.30;;;20.50;99.90;;;;;;2009737;70;25235;-90
2023/07/10 04:11:30;;;;;;;9.10;3.77;;;20.70;99.90;;;;;;2025813;70;25815;-90
2023/07/10 04:17:04;;;;;;;8.43;4.20;;;21.60;99.90;;;;;;1945960;72;27509;-89
2023/07/10 04:19:54;;;;;;;7.93;4.77;;;21.30;99.90;;;;;;1906576;74;25262;-89
2023/07/10 04:22:42;;;;;;;6.33;3.93;;;20.60;99.90;;;;;;1920192;73;25323;-89
2023/07/10 04:28:12;;;;;;;8.67;4.37;;;20.60;99.90;;;;;;1950414;72;27659;-89
2023/07/10 04:31:01;;;;;;;3.70;3.20;;;21.00;99.90;;;;;;1958284;73;25310;-89
2023/07/10 04:33:51;;;;;;;7.43;3.90;;;22.10;99.90;;;;;;1947193;73;25769;-89
2023/07/10 04:36:40;;;;;;;6.20;3.80;;;22.70;99.90;;;;;;1932541;72;25647;-89
2023/07/10 04:39:29;;;;;;;6.43;3.80;;;22.60;99.90;;;;;;1942871;72;25691;-90
2023/07/10 04:45:00;;;;;;;7.87;4.50;;;22.30;99.90;;;;;;1936285;72;27348;-90
2023/07/10 04:47:50;;;;;;;8.03;4.27;;;22.20;99.90;;;;;;1904472;75;25240;-90
2023/07/10 04:50:40;;;;;;;6.23;4.23;;;22.30;99.90;;;;;;1899621;75;25276;-91
2023/07/10 04:56:19;;;;;;;7.10;4.07;;;21.90;99.90;;;;;;1922358;72;27738;-90
2023/07/10 04:59:07;;;;;;;8.53;4.17;;;22.30;99.90;;;;;;1881283;76;25239;-89
2023/07/10 05:01:57;;;;;;;7.83;3.80;;;22.10;99.90;;;;;;1889482;76;25342;-90
2023/07/10 05:21:57;;;;;;;4.83;3.40;;;22.90;99.90;;;;;;2006867;71;27765;-91
2023/07/10 05:24:43;;;;;;;7.27;4.13;;;23.20;99.90;;;;;;1965741;72;25279;-90
2023/07/10 05:27:31;;;;;;;8.70;4.20;;;23.20;99.90;;;;;;1957921;72;25238;-90
2023/07/10 05:30:21;;;;;;;6.30;4.03;;;23.60;99.90;;;;;;1892614;75;25786;-90
2023/07/10 05:33:20;;;;;;;9.33;4.30;;;22.90;99.90;;;;;;1874916;74;25316;-90
2023/07/10 05:36:11;;;;;;;7.03;4.60;;;22.50;99.90;;;;;;1895877;75;25170;-91
2023/07/10 05:39:00;;;;;;;6.50;3.90;;;21.50;99.90;;;;;;1907944;75;25188;-89
2023/07/10 05:55:42;;;;;;;8.57;4.20;;;21.20;99.90;;;;;;1928695;74;27645;-90
2023/07/10 06:12:32;;;;;;;5.43;3.73;;;22.80;99.90;;;;;;1966052;71;26846;-90
2023/07/10 06:15:20;;;;;;;7.50;3.93;;;22.60;99.90;;;;;;1923300;73;25161;-89
2023/07/10 06:18:10;;;;;;;7.40;3.63;;;22.20;99.90;;;;;;2012159;70;25184;-89
2023/07/10 06:21:00;;;;;;;4.17;3.10;;;22.30;99.90;;;;;;2009703;70;25171;-89
2023/07/10 06:23:50;;;;;;;4.23;3.50;;;22.10;99.90;;;;;;2013884;70;25212;-90
2023/07/10 06:26:38;;;;;;;4.40;3.50;;;22.30;99.90;;;;;;2015158;70;25257;-89
2023/07/10 06:29:27;;;;;;;5.30;3.40;;;22.50;99.90;;;;;;2016471;70;25170;-90
2023/07/10 06:32:17;;;;;;;5.87;3.27;;;22.90;99.90;;;;;;2009411;70;25279;-89
2023/07/10 06:35:12;;;;;;;4.67;3.30;;;23.20;99.90;;;;;;2005084;70;25812;-90
2023/07/10 06:37:57;;;;;;;4.37;3.40;;;23.30;99.90;;;;;;1991749;70;25232;-90
2023/07/10 06:40:48;;;;;;;5.73;3.80;;;23.10;99.90;;;;;;2003020;70;25313;-90
2023/07/10 06:49:18;;;;;;;3.90;3.23;;;23.20;99.90;;;;;;1975750;71;27407;-90
2023/07/10 06:52:07;;;;;;;6.00;3.43;;;23.20;99.90;;;;;;1926686;73;25294;-89
2023/07/10 06:54:57;;;;;;;6.73;3.10;;;23.70;99.90;;;;;;1945000;72;25259;-90
2023/07/10 06:57:46;;;;;;;4.93;3.43;;;22.80;99.90;;;;;;1935981;74;25862;-90
2023/07/10 07:00:36;;;;;;;4.37;3.10;;;22.60;99.90;;;;;;1993740;70;25195;-90
2023/07/10 07:03:24;;;;;;;4.63;3.73;;;22.90;99.90;;;;;;1994307;71;25215;-90
2023/07/10 07:06:13;;;;;;;5.53;3.30;;;23.60;99.90;;;;;;1996311;71;25243;-90
2023/07/10 07:09:01;;;;;;;4.07;3.20;;;23.90;99.90;;;;;;1978421;72;25524;-90
2023/07/10 07:26:52;;;;;;;4.50;3.40;;;23.30;99.90;;;;;;1904390;74;26766;-91
2023/07/10 07:32:22;;;;;;;6.77;3.27;;;23.10;99.90;;;;;;1932150;72;27750;-90
2023/07/10 07:35:11;;;;;;;5.97;3.40;;;23.50;99.90;;;;;;1911148;73;25300;-90
2023/07/10 07:40:52;;;;;;;6.50;3.43;;;23.60;99.90;;;;;;1957235;72;27153;-90
2023/07/10 07:43:40;;;;;;;4.23;2.90;;;23.80;99.90;;;;;;1934523;73;25230;-90
2023/07/10 07:49:14;;;;;;;5.03;3.50;;;24.70;99.90;;;;;;1940089;72;27082;-90
2023/07/10 07:52:03;;;;;;;4.83;3.30;;;24.90;99.90;;;;;;1900755;75;25757;-90
2023/07/10 07:54:51;;;;;;;3.80;3.40;;;25.20;99.90;;;;;;1883357;75;25215;-90
2023/07/10 07:57:40;;;;;;;3.70;3.40;;;25.00;99.90;;;;;;1899272;75;25681;-90
2023/07/10 08:00:29;;;;;;;9.47;3.67;;;24.60;99.90;;;;;;1905506;75;25326;-90
2023/07/10 08:03:23;;;;;;;5.83;3.70;;;24.70;99.90;;;;;;1900850;75;25248;-90
2023/07/10 08:08:52;;;;;;;3.87;3.47;;;24.50;99.90;;;;;;1925891;72;27083;-89
2023/07/10 08:11:57;;;;;;;6.40;4.00;;;24.90;99.90;;;;;;1907104;75;25261;-90
2023/07/10 08:14:49;;;;;;;8.10;4.50;;;25.10;99.90;;;;;;1908795;75;25192;-91
2023/07/10 08:17:38;;;;;;;8.07;4.80;;;25.50;99.90;;;;;;1907672;73;25262;-89
2023/07/10 08:37:08;;;;;;;7.73;4.30;;;24.70;99.90;;;;;;1949295;72;27012;-91
2023/07/10 08:39:58;;;;;;;6.77;4.00;;;24.40;99.90;;;;;;1923230;73;25333;-90
2023/07/10 08:42:47;;;;;;;8.03;3.37;;;24.90;99.90;;;;;;1904830;73;25908;-91
2023/07/10 08:45:39;;;;;;;4.20;3.50;;;24.90;99.90;;;;;;1903877;73;25298;-90
2023/07/10 08:51:28;;;;;;;3.97;3.23;;;24.90;99.90;;;;;;1923729;72;27059;-90
2023/07/10 08:54:18;;;;;;;4.20;3.27;;;25.20;99.90;;;;;;1911277;74;25272;-90
2023/07/10 08:57:15;;;;;;;4.73;3.43;;;24.50;99.90;;;;;;1865572;76;25254;-90
2023/07/10 09:00:10;;;;;;;5.43;3.50;;;24.40;99.90;;;;;;1801753;78;25311;-90
2023/07/10 09:03:03;;;;;;;4.03;2.93;;;24.50;99.90;;;;;;1894535;73;25221;-91
2023/07/10 09:11:04;;;;;;;6.27;3.20;;;24.50;99.90;;;;;;1977958;71;28034;-90
2023/07/10 09:13:57;;;;;;;3.63;3.07;;;25.10;99.90;;;;;;1940186;72;27122;-91
2023/07/10 09:16:48;;;;;;;5.50;3.30;;;25.40;99.90;;;;;;1985900;70;25637;-91
2023/07/10 09:19:37;;;;;;;4.23;3.07;;;25.00;99.90;;;;;;1945451;71;25824;-91
2023/07/10 09:22:26;;;;;;;3.80;3.00;;;25.30;99.90;;;;;;1990388;72;25149;-90
2023/07/10 09:25:17;;;;;;;5.30;3.00;;;25.60;99.90;;;;;;1984393;70;25275;-90
2023/07/10 09:28:05;;;;;;;5.13;3.40;;;25.50;99.90;;;;;;1991510;71;25574;-90
2023/07/10 09:34:43;;;;;;;4.47;2.70;;;25.90;99.90;;;;;;1939514;72;25925;-90
2023/07/10 09:37:35;;;;;;;3.50;3.03;;;25.80;99.90;;;;;;1928989;72;26524;-90
2023/07/10 09:40:36;;;;;;;6.03;2.57;;;26.10;99.90;;;;;;1932214;72;25234;-91
2023/07/10 09:46:20;;;;;;;3.30;3.00;;;25.30;99.90;;;;;;1949985;72;26941;-91
2023/07/10 09:49:15;;;;;;;4.23;2.80;;;25.20;99.90;;;;;;1924746;72;25364;-91
2023/07/10 09:52:10;;;;;;;3.97;2.60;;;25.80;99.90;;;;;;1942311;73;25276;-90
2023/07/10 09:55:04;;;;;;;3.43;2.40;;;25.70;99.90;;;;;;1926499;73;25180;-91
2023/07/10 09:57:57;;;;;;;3.27;2.50;;;25.80;99.90;;;;;;1929308;72;26710;-90
2023/07/10 10:00:48;;;;;;;3.33;2.13;;;25.70;99.90;;;;;;1937194;73;25267;-91
2023/07/10 10:03:42;;;;;;;6.80;2.60;;;25.30;99.90;;;;;;1931654;72;25821;-91
2023/07/10 10:40:15;;;;;;;2.47;2.10;;;26.60;99.90;;;;;;1941856;72;28751;-91
2023/07/10 10:46:30;;;;;;;3.30;2.40;;;26.00;99.90;;;;;;1943980;72;26830;-91
2023/07/10 10:52:46;;;;;;;2.37;2.13;;;26.00;99.90;;;;;;1944714;72;27876;-92
2023/07/10 10:59:52;;;;;;;2.30;2.10;;;26.30;99.90;;;;;;1980361;71;28564;-90
2023/07/10 11:16:33;;;;;;;2.87;2.50;;;26.00;99.90;;;;;;1861046;75;27677;-90
2023/07/10 11:33:38;;;;;;;5.67;2.50;;;25.00;99.90;;;;;;2001252;71;27579;-91
2023/07/10 12:46:19;;;;;;;4.97;2.50;;;26.50;99.90;;;;;;1929281;73;27389;-92
2023/07/10 12:52:58;;;;;;;3.83;2.50;;;26.10;99.90;;;;;;2019283;70;27148;-91
2023/07/10 12:55:50;;;;;;;5.87;2.57;;;26.10;99.90;;;;;;1987308;71;26256;-91
2023/07/10 12:58:40;;;;;;;5.13;2.60;;;25.90;99.90;;;;;;1988749;71;25279;-91
2023/07/10 13:14:49;;;;;;;2.80;2.60;;;25.50;99.90;;;;;;1905171;73;27054;-91
2023/07/10 13:22:02;;;;;;;5.17;2.47;;;25.10;99.90;;;;;;1993375;71;27476;-90
2023/07/10 13:25:11;;;;;;;4.83;2.67;;;25.10;99.90;;;;;;1956183;72;25753;-91
2023/07/10 13:28:19;;;;;;;2.83;2.50;;;24.90;99.90;;;;;;1957165;72;25283;-91
2023/07/10 13:31:12;;;;;;;3.83;2.70;;;25.00;99.90;;;;;;1973766;72;26250;-92
2023/07/10 13:34:01;;;;;;;2.77;2.43;;;25.20;99.90;;;;;;1948563;72;25220;-92
2023/07/10 13:36:51;;;;;;;6.60;2.47;;;25.20;99.90;;;;;;1951913;72;25202;-92
2023/07/10 13:39:43;;;;;;;2.30;2.10;;;25.30;99.90;;;;;;1952271;72;25218;-92
2023/07/10 13:42:31;;;;;;;2.90;2.57;;;25.10;99.90;;;;;;1956739;72;25367;-91
2023/07/10 13:49:14;;;;;;;3.97;2.40;;;24.80;99.90;;;;;;1987271;71;28948;-91
2023/07/10 13:52:26;;;;;;;2.57;2.30;;;24.80;99.90;;;;;;1956041;72;25164;-92
2023/07/10 13:55:18;;;;;;;3.07;2.53;;;24.90;99.90;;;;;;2052076;69;25636;-92
2023/07/10 14:13:26;;;;;;;3.00;2.30;;;25.10;99.90;;;;;;1922678;72;28166;-90
2023/07/10 14:16:17;;;;;;;5.10;2.73;;;25.50;99.90;;;;;;1915463;73;26215;-88
2023/07/10 14:19:11;;;;;;;2.83;2.63;;;25.50;99.90;;;;;;1905306;73;26335;-88
2023/07/10 14:21:59;;;;;;;4.97;2.60;;;25.30;99.90;;;;;;1912395;73;25280;-89
2023/07/10 14:24:48;;;;;;;7.53;2.83;;;25.10;99.90;;;;;;1899927;73;25253;-89
2023/07/10 14:27:37;;;;;;;3.90;2.70;;;24.90;99.90;;;;;;1915201;73;25324;-90
2023/07/10 14:30:26;;;;;;;4.00;2.83;;;24.70;99.90;;;;;;1894559;73;25181;-89
2023/07/10 14:33:15;;;;;;;3.53;3.03;;;24.60;99.90;;;;;;1907085;73;25228;-89
2023/07/10 14:36:05;;;;;;;3.67;2.50;;;24.60;99.90;;;;;;1879756;75;25236;-90
2023/07/10 15:02:30;;;;;;;5.03;2.20;;;24.30;99.90;;;;;;1898198;73;28903;-89
2023/07/10 15:05:19;;;;;;;6.90;2.30;;;22.00;99.90;;;;;;1898710;74;25255;-89
2023/07/10 15:11:02;;;;;;;3.00;2.20;;;21.40;99.90;;;;;;1950598;72;26980;-89
2023/07/10 15:13:51;;;;;;;2.57;2.20;;;21.20;99.90;;;;;;1929008;72;25239;-88
2023/07/10 15:16:39;;;;;;;2.70;2.00;;;20.90;99.90;;;;;;1919874;73;25197;-89
2023/07/10 15:19:28;;;;;;;2.93;2.20;;;20.70;99.90;;;;;;1933837;72;25220;-89
2023/07/10 15:22:18;;;;;;;4.23;2.50;;;20.60;99.90;;;;;;1910597;72;25174;-88
2023/07/10 15:25:13;;;;;;;5.27;2.47;;;20.40;99.90;;;;;;1928582;73;25238;-88
2023/07/10 15:30:41;;;;;;;5.80;3.10;;;19.80;99.90;;;;;;1927608;72;27589;-89
2023/07/10 15:33:32;;;;;;;6.47;3.30;;;19.60;99.90;;;;;;1909953;73;25249;-88
2023/07/10 15:36:21;;;;;;;5.07;3.23;;;19.50;99.90;;;;;;1876743;75;25215;-88
2023/07/10 15:39:16;;;;;;;6.33;3.60;;;19.50;99.90;;;;;;1861778;76;25775;-89
2023/07/10 15:42:06;;;;;;;5.27;3.70;;;19.40;99.90;;;;;;1848973;75;25319;-90
2023/07/10 15:47:43;;;;;;;5.40;4.03;;;19.50;99.90;;;;;;1947390;72;26975;-87
2023/07/10 15:50:35;;;;;;;5.53;4.10;;;19.40;99.90;;;;;;1936193;72;25690;-90
2023/07/10 15:53:26;;;;;;;5.50;4.37;;;19.40;99.90;;;;;;1933598;72;25230;-90
2023/07/10 15:56:14;;;;;;;5.50;4.07;;;19.30;99.90;;;;;;1936955;72;25287;-88
2023/07/10 16:02:30;;;;;;;4.90;4.10;;;19.40;99.90;;;;;;1849953;76;25285;-89
2023/07/10 16:05:23;;;;;;;5.67;4.13;;;19.20;99.90;;;;;;1896851;75;25214;-89
2023/07/10 16:08:15;;;;;;;6.93;4.10;;;19.20;99.90;;;;;;1881754;75;25307;-89
2023/07/10 16:11:07;;;;;;;5.47;4.30;;;19.10;99.90;;;;;;1869582;75;25174;-89
2023/07/10 16:13:55;;;;;;;5.27;4.27;;;19.10;99.90;;;;;;1835546;77;25819;-89
2023/07/10 16:16:44;;;;;;;6.97;4.70;;;19.10;99.90;;;;;;1904398;75;25269;-89
2023/07/10 16:19:33;;;;;;;5.93;4.57;;;19.00;99.90;;;;;;1928611;72;25641;-89
2023/07/10 16:22:21;;;;;;;8.97;4.77;;;19.00;99.90;;;;;;1919903;73;25276;-88
2023/07/10 16:25:15;;;;;;;5.30;4.57;;;19.10;99.90;;;;;;1917797;72;25194;-89
2023/07/10 16:28:04;;;;;;;6.30;4.33;;;19.10;99.90;;;;;;1879914;75;25164;-89
2023/07/10 16:33:46;;;;;;;7.10;4.40;;;19.10;99.90;;;;;;1943339;72;27348;-88
2023/07/10 16:36:35;;;;;;;8.17;4.47;;;19.20;99.90;;;;;;1921246;72;26670;-88
2023/07/10 16:39:24;;;;;;;6.23;4.40;;;19.30;99.90;;;;;;1923325;72;25230;-88
2023/07/10 16:42:16;;;;;;;6.67;4.20;;;19.30;99.90;;;;;;1874534;75;25322;-88
2023/07/10 16:45:06;;;;;;;6.40;4.23;;;19.30;99.90;;;;;;1872061;75;25280;-88
2023/07/10 16:47:55;;;;;;;7.30;4.20;;;19.40;99.90;;;;;;1878653;75;25702;-88
2023/07/10 16:50:45;;;;;;;6.87;4.60;;;19.30;99.90;;;;;;1872855;75;25288;-88
2023/07/10 16:53:36;;;;;;;6.77;4.27;;;19.30;99.90;;;;;;1841335;77;25722;-90
2023/07/10 16:59:16;;;;;;;6.63;4.37;;;19.40;99.90;;;;;;1947091;72;26958;-89
2023/07/10 17:02:12;;;;;;;6.60;4.33;;;19.50;99.90;;;;;;1937100;72;25723;-89
2023/07/10 17:05:00;;;;;;;8.17;4.37;;;19.50;99.90;;;;;;1943581;73;25331;-89
2023/07/10 17:07:49;;;;;;;6.17;4.17;;;19.60;99.90;;;;;;1931907;73;25327;-89
2023/07/10 17:14:52;;;;;;;9.97;4.47;;;19.50;99.90;;;;;;1945240;72;27546;-88
2023/07/10 17:17:41;;;;;;;8.90;4.20;;;19.50;99.90;;;;;;1982018;70;25349;-88
2023/07/10 17:20:31;;;;;;;5.17;3.80;;;19.60;99.90;;;;;;1992186;72;25804;-90
2023/07/10 17:23:21;;;;;;;4.30;3.50;;;19.60;99.90;;;;;;1979851;72;25141;-90
2023/07/10 17:26:12;;;;;;;5.90;3.90;;;19.60;99.90;;;;;;1994461;72;25154;-90
2023/07/10 17:29:01;;;;;;;7.20;4.20;;;19.60;99.90;;;;;;1979724;72;25233;-90
2023/07/10 17:31:50;;;;;;;5.40;4.03;;;19.50;99.90;;;;;;1994362;72;25186;-90
2023/07/10 17:34:38;;;;;;;5.80;4.10;;;19.50;99.90;;;;;;1998845;70;25135;-90
2023/07/10 17:54:59;;;;;;;6.80;4.00;;;19.50;99.90;;;;;;1979041;71;26939;-88
2023/07/10 18:00:32;;;;;;;6.10;3.63;;;19.60;99.90;;;;;;1835134;75;27151;-88
2023/07/10 18:03:24;;;;;;;5.37;3.70;;;19.60;99.90;;;;;;1796801;78;25311;-88
2023/07/10 18:09:16;;;;;;;6.00;3.90;;;19.50;99.90;;;;;;1996696;71;27539;-89
2023/07/10 18:12:09;;;;;;;5.93;3.73;;;19.40;99.90;;;;;;1927950;73;25714;-89
2023/07/10 18:14:59;;;;;;;6.70;4.20;;;19.40;99.90;;;;;;1933134;73;25364;-88
2023/07/10 18:17:48;;;;;;;7.87;3.80;;;19.30;99.90;;;;;;1919602;73;25288;-89
2023/07/10 18:20:37;;;;;;;7.53;3.70;;;19.30;99.90;;;;;;1937434;73;25413;-88
2023/07/10 18:23:29;;;;;;;5.20;3.47;;;19.20;99.90;;;;;;1918940;73;25227;-88
2023/07/10 18:30:09;;;;;;;7.70;3.60;;;19.10;99.90;;;;;;1984619;71;26319;-89
2023/07/10 18:32:58;;;;;;;3.93;3.30;;;19.10;99.90;;;;;;1961654;72;25287;-88
2023/07/10 18:35:47;;;;;;;5.07;3.40;;;19.20;99.90;;;;;;2056971;69;25237;-88
2023/07/10 18:38:35;;;;;;;3.97;3.40;;;19.20;99.90;;;;;;2053261;69;25214;-89
2023/07/10 18:41:26;;;;;;;3.33;3.03;;;19.20;99.90;;;;;;2047392;69;25275;-89
2023/07/10 18:44:16;;;;;;;5.33;3.47;;;19.20;99.90;;;;;;1967593;72;25281;-88
2023/07/10 18:47:06;;;;;;;5.73;2.83;;;19.30;99.90;;;;;;2020506;69;25134;-89
2023/07/10 19:21:53;;;;;;;4.40;3.27;;;19.20;99.90;;;;;;1998795;71;28024;-88
2023/07/10 19:24:42;;;;;;;4.53;3.47;;;19.00;99.90;;;;;;1952075;72;25303;-88
2023/07/10 19:27:31;;;;;;;3.83;2.70;;;18.80;99.90;;;;;;1951869;73;25192;-88
2023/07/10 19:30:20;;;;;;;7.30;2.97;;;18.80;99.90;;;;;;1952400;72;25671;-88
2023/07/10 19:33:12;;;;;;;5.40;3.30;;;18.90;99.90;;;;;;1962891;73;25236;-89
2023/07/10 19:36:01;;;;;;;3.70;3.27;;;18.80;99.90;;;;;;1955324;73;25221;-89
2023/07/10 19:38:50;;;;;;;6.90;3.70;;;18.70;99.90;;;;;;1948753;72;25732;-88
2023/07/10 19:41:39;;;;;;;5.20;3.73;;;18.70;99.90;;;;;;1926904;72;25798;-88
2023/07/10 19:44:31;;;;;;;4.73;3.47;;;18.70;99.90;;;;;;1908669;73;25305;-88
2023/07/10 19:47:20;;;;;;;4.67;3.80;;;18.60;99.90;;;;;;1904259;73;25720;-88
2023/07/10 19:50:16;;;;;;;3.67;3.23;;;18.60;99.90;;;;;;1924637;72;25213;-88
2023/07/10 19:53:13;;;;;;;4.63;3.50;;;18.70;99.90;;;;;;1907069;73;25262;-89
2023/07/10 19:56:07;;;;;;;6.23;3.97;;;18.60;99.90;;;;;;1902230;74;25133;-89
2023/07/10 19:58:56;;;;;;;4.33;3.53;;;18.60;99.90;;;;;;1908306;73;25308;-89
2023/07/10 20:04:39;;;;;;;6.50;3.63;;;18.60;99.90;;;;;;1953655;72;27341;-89
2023/07/10 20:07:28;;;;;;;4.57;3.63;;;18.60;99.90;;;;;;1950143;72;26963;-89
2023/07/10 20:10:21;;;;;;;5.07;3.53;;;18.60;99.90;;;;;;1915061;74;25330;-88
2023/07/10 20:16:01;;;;;;;6.27;3.93;;;18.60;99.90;;;;;;1933767;72;27071;-88
2023/07/10 20:34:55;;;;;;;7.37;4.00;;;18.20;99.90;;;;;;2013503;69;27580;-88
2023/07/10 20:37:44;;;;;;;6.37;4.03;;;18.10;99.90;;;;;;1961814;72;25199;-88
2023/07/10 20:40:32;;;;;;;4.63;4.00;;;18.10;99.90;;;;;;1964915;71;25229;-89
2023/07/10 20:46:12;;;;;;;5.90;4.50;;;18.00;99.90;;;;;;1908867;74;27552;-88
2023/07/10 20:49:01;;;;;;;6.50;4.20;;;18.00;99.90;;;;;;1854878;76;25756;-88
2023/07/10 20:51:50;;;;;;;5.33;4.13;;;18.00;99.90;;;;;;1863344;76;25278;-88
2023/07/10 20:54:39;;;;;;;6.00;4.27;;;17.90;99.90;;;;;;1857889;76;25157;-88
2023/07/10 20:57:29;;;;;;;9.60;4.30;;;17.90;99.90;;;;;;1860602;76;25189;-88
2023/07/10 21:00:19;;;;;;;8.17;4.30;;;17.90;99.90;;;;;;1859072;76;25867;-88
2023/07/10 21:03:15;;;;;;;8.80;4.33;;;17.90;99.90;;;;;;1855265;76;25260;-89
2023/07/10 21:06:07;;;;;;;6.67;4.67;;;17.90;99.90;;;;;;1857086;76;25281;-89
2023/07/10 21:08:57;;;;;;;5.67;4.57;;;17.80;99.90;;;;;;1858359;76;25612;-89
2023/07/10 21:11:46;;;;;;;5.03;3.87;;;17.80;99.90;;;;;;1863140;76;25252;-88
2023/07/10 21:17:51;;;;;;;4.73;4.23;;;17.80;99.90;;;;;;1854234;76;27190;-88
2023/07/10 21:20:39;;;;;;;6.57;4.60;;;17.90;99.90;;;;;;1830220;76;25334;-88
2023/07/10 21:23:31;;;;;;;7.20;4.43;;;17.90;99.90;;;;;;1826604;77;25252;-88
2023/07/10 21:29:05;;;;;;;6.53;4.70;;;17.80;99.90;;;;;;1947863;72;27526;-88
2023/07/10 21:31:54;;;;;;;6.53;4.67;;;17.60;99.90;;;;;;1938059;73;25235;-89
2023/07/10 21:34:42;;;;;;;6.47;4.80;;;17.60;99.90;;;;;;1932222;73;25814;-89
2023/07/10 21:37:31;;;;;;;10.03;4.60;;;17.60;99.90;;;;;;1865949;75;25264;-89
2023/07/10 21:40:20;;;;;;;8.77;4.57;;;17.60;99.90;;;;;;1894884;75;25239;-90
2023/07/10 21:46:03;;;;;;;7.03;4.67;;;17.60;99.90;;;;;;1942504;72;27525;-88
2023/07/10 21:48:51;;;;;;;6.90;4.57;;;17.70;99.90;;;;;;1940463;73;25195;-89
2023/07/10 21:51:41;;;;;;;5.67;5.00;;;17.70;99.90;;;;;;1925332;73;25751;-88
2023/07/10 21:54:30;;;;;;;6.90;4.70;;;17.70;99.90;;;;;;1917340;73;25218;-89
2023/07/10 21:57:23;;;;;;;4.97;4.47;;;17.70;99.90;;;;;;1920882;73;25264;-89
2023/07/10 22:00:18;;;;;;;7.70;5.73;;;17.70;99.90;;;;;;1919848;73;25213;-88
2023/07/10 22:03:15;;;;;;;9.37;5.20;;;17.70;99.90;;;;;;1923751;73;25206;-88
2023/07/10 22:06:06;;;;;;;5.97;4.77;;;17.70;99.90;;;;;;1933439;73;25238;-89
2023/07/10 22:08:55;;;;;;;8.40;4.97;;;17.70;99.90;;;;;;1942145;73;25721;-89
2023/07/10 22:14:58;;;;;;;6.83;4.73;;;17.70;99.90;;;;;;1957230;71;27543;-89
2023/07/10 22:17:46;;;;;;;7.50;4.60;;;17.70;99.90;;;;;;1975602;70;25180;-89
2023/07/10 22:20:43;;;;;;;6.27;4.70;;;17.60;99.90;;;;;;2003752;70;25279;-89
2023/07/10 22:23:33;;;;;;;6.20;4.50;;;17.80;99.90;;;;;;1987173;70;25419;-88
2023/07/10 22:29:08;;;;;;;6.20;4.53;;;17.70;99.90;;;;;;1962734;72;27063;-89
2023/07/10 22:34:38;;;;;;;8.67;4.47;;;17.50;99.90;;;;;;1974147;71;26990;-88
2023/07/10 22:37:26;;;;;;;7.60;4.73;;;17.50;99.90;;;;;;1969022;71;25278;-88
2023/07/10 22:40:15;;;;;;;8.87;5.23;;;17.40;99.90;;;;;;1963385;71;25174;-90
2023/07/10 22:43:04;;;;;;;8.47;5.57;;;17.40;99.90;;;;;;1940087;72;25185;-90
2023/07/10 22:45:53;;;;;;;5.17;4.47;;;17.30;99.90;;;;;;1938809;73;25711;-90
2023/07/10 22:52:03;;;;;;;7.30;5.03;;;17.30;99.90;;;;;;1948547;72;26816;-89
2023/07/10 22:54:52;;;;;;;9.17;5.37;;;17.40;99.90;;;;;;1996972;71;25275;-89
2023/07/10 23:13:13;;;;;;;8.47;5.13;;;17.40;99.90;;;;;;1978136;71;27133;-88
2023/07/10 23:16:01;;;;;;;7.83;4.90;;;17.50;99.90;;;;;;1961571;72;25631;-89
2023/07/10 23:18:55;;;;;;;7.03;5.23;;;17.50;99.90;;;;;;2045942;69;25144;-89
2023/07/10 23:21:43;;;;;;;6.67;5.13;;;17.50;99.90;;;;;;2043852;69;25695;-89